createdAt,value
2022-09-28T00:01:07.311Z,93915.25
2022-09-28T00:03:34.935Z,93913.36
2022-09-28T00:06:05.007Z,93912.81
2022-09-28T00:08:32.599Z,93903.85
2022-09-28T00:10:59.415Z,93905.83
2022-09-28T00:13:26.637Z,93906.73
2022-09-28T00:16:11.138Z,93906.70
2022-09-28T00:18:38.283Z,93912.90
2022-09-28T00:21:17.245Z,93921.09
2022-09-28T00:24:04.322Z,93921.79
2022-09-28T00:26:33.304Z,93921.75
2022-09-28T00:29:01.856Z,93921.71
2022-09-28T00:31:32.165Z,93926.35
2022-09-28T00:34:01.743Z,93934.29
2022-09-28T00:36:30.963Z,93923.36
2022-09-28T00:38:58.858Z,93920.85
2022-09-28T00:41:27.645Z,93919.67
2022-09-28T00:44:26.503Z,93922.14
2022-09-28T00:46:56.636Z,93924.23
2022-09-28T00:50:09.886Z,93920.98
2022-09-28T00:52:45.628Z,93915.73
2022-09-28T00:55:17.162Z,93918.34
2022-09-28T00:57:50.133Z,93919.35
2022-09-28T01:00:17.624Z,93911.97
2022-09-28T01:02:46.901Z,93912.85
2022-09-28T01:05:14.557Z,93916.52
2022-09-28T01:07:44.178Z,93915.69
2022-09-28T01:10:11.342Z,93913.05
2022-09-28T01:12:38.228Z,93913.09
2022-09-28T01:15:06.033Z,93916.89
2022-09-28T01:18:08.427Z,93925.44
2022-09-28T01:20:58.218Z,93932.63
2022-09-28T01:23:43.624Z,93932.86
2022-09-28T01:26:10.205Z,93937.03
2022-09-28T01:28:37.707Z,93930.18
2022-09-28T01:31:14.068Z,93925.21
2022-09-28T01:33:50.428Z,93935.19
2022-09-28T01:36:36.285Z,93942.86
2022-09-28T01:39:15.859Z,93952.45
2022-09-28T01:41:48.214Z,93956.24
2022-09-28T01:44:19.387Z,93954.17
2022-09-28T01:46:48.870Z,93951.39
2022-09-28T01:49:34.216Z,93942.68
2022-09-28T01:52:27.241Z,93944.56
2022-09-28T01:55:00.987Z,93944.35
2022-09-28T01:57:32.774Z,93948.30
2022-09-28T02:00:06.801Z,93944.27
2022-09-28T02:03:04.937Z,93945.44
2022-09-28T02:05:42.080Z,93955.14
2022-09-28T02:08:24.897Z,93962.28
2022-09-28T02:11:13.112Z,93960.96
2022-09-28T02:13:45.883Z,93959.02
2022-09-28T02:16:30.791Z,93960.80
2022-09-28T02:18:58.250Z,93956.22
2022-09-28T02:21:36.728Z,93960.00
2022-09-28T02:24:14.870Z,93969.33
2022-09-28T02:26:48.683Z,93969.30
2022-09-28T02:29:16.566Z,93968.07
2022-09-28T02:31:43.877Z,93975.48
2022-09-28T02:34:10.691Z,93985.14
2022-09-28T02:36:37.869Z,93983.26
2022-09-28T02:39:04.873Z,93981.55
2022-09-28T02:41:53.263Z,93991.52
2022-09-28T02:44:34.861Z,93990.18
2022-09-28T02:47:04.598Z,93992.99
2022-09-28T02:49:48.054Z,93994.00
2022-09-28T02:52:50.161Z,93990.08
2022-09-28T02:55:38.334Z,93997.39
2022-09-28T02:58:11.565Z,93999.95
2022-09-28T03:00:49.177Z,93994.92
2022-09-28T03:03:47.598Z,93990.85
2022-09-28T03:06:26.324Z,93996.98
2022-09-28T03:09:00.857Z,94000.78
2022-09-28T03:11:39.383Z,94001.82
2022-09-28T03:14:06.878Z,94002.63
2022-09-28T03:16:45.319Z,94007.66
2022-09-28T03:19:13.005Z,94011.45
2022-09-28T03:21:40.765Z,94022.21
2022-09-28T03:24:10.543Z,94026.06
2022-09-28T03:26:40.471Z,94031.27
2022-09-28T03:29:07.359Z,94035.23
2022-09-28T03:31:34.724Z,94036.27
2022-09-28T03:34:02.135Z,94044.17
2022-09-28T03:36:28.958Z,94041.86
2022-09-28T03:38:55.988Z,94043.73
2022-09-28T03:41:24.482Z,94044.89
2022-09-28T03:43:51.658Z,94048.27
2022-09-28T03:46:18.521Z,94050.38
2022-09-28T03:48:48.061Z,94046.10
2022-09-28T03:51:14.857Z,94046.52
2022-09-28T03:53:41.799Z,94052.36
2022-09-28T03:56:12.871Z,94061.67
2022-09-28T03:58:40.185Z,94058.70
2022-09-28T04:01:16.887Z,94053.10
2022-09-28T04:03:44.924Z,94043.79
2022-09-28T04:06:12.759Z,94046.63
2022-09-28T04:08:39.922Z,94045.89
2022-09-28T04:11:06.933Z,94052.84
2022-09-28T04:13:33.877Z,94058.00
2022-09-28T04:16:01.482Z,94063.13
2022-09-28T04:18:32.507Z,94065.44
2022-09-28T04:21:18.363Z,94073.61
2022-09-28T04:24:00.514Z,94071.84
2022-09-28T04:26:27.990Z,94078.04
2022-09-28T04:29:13.539Z,94080.16
2022-09-28T04:31:50.429Z,94084.85
2022-09-28T04:34:19.924Z,94084.17
2022-09-28T04:36:47.697Z,94090.84
2022-09-28T04:39:17.052Z,94084.52
2022-09-28T04:41:49.671Z,94086.18
2022-09-28T04:44:16.982Z,94093.40
2022-09-28T04:46:46.913Z,94096.13
2022-09-28T04:49:29.091Z,94089.52
2022-09-28T04:52:09.172Z,94095.15
2022-09-28T04:54:36.174Z,94096.95
2022-09-28T04:57:05.332Z,94098.05
2022-09-28T04:59:32.906Z,94105.17
2022-09-28T05:02:01.238Z,94106.59
2022-09-28T05:04:47.063Z,94106.73
2022-09-28T05:07:41.900Z,94106.88
2022-09-28T05:10:09.273Z,94103.95
2022-09-28T05:12:37.915Z,94102.90
2022-09-28T05:15:05.247Z,94110.11
2022-09-28T05:17:32.094Z,94103.65
2022-09-28T05:20:19.124Z,94107.30
2022-09-28T05:22:46.198Z,94110.02
2022-09-28T05:25:13.439Z,94117.81
2022-09-28T05:28:07.675Z,94126.95
2022-09-28T05:30:42.349Z,94126.25
2022-09-28T05:33:27.262Z,94132.83
2022-09-28T05:36:11.456Z,94128.42
2022-09-28T05:38:43.481Z,94133.39
2022-09-28T05:41:14.989Z,94136.87
2022-09-28T05:43:50.145Z,94135.52
2022-09-28T05:46:22.791Z,94134.95
2022-09-28T05:48:54.090Z,94131.83
2022-09-28T05:51:25.642Z,94141.02
2022-09-28T05:54:06.886Z,94148.07
2022-09-28T06:40:02.186Z,94149.73
2022-09-28T07:00:28.981Z,94168.05
2022-09-28T07:03:25.725Z,94170.05
2022-09-28T07:06:35.128Z,94166.94
2022-09-28T07:09:44.948Z,94176.11
2022-09-28T07:12:39.481Z,94172.93
2022-09-28T07:15:31.931Z,94171.27
2022-09-28T07:18:11.654Z,94175.39
2022-09-28T07:20:52.180Z,94174.41
2022-09-28T07:23:42.956Z,94171.40
2022-09-28T07:26:57.233Z,94181.99
2022-09-28T07:29:46.430Z,94185.27
2022-09-28T07:32:47.593Z,94191.38
2022-09-28T07:35:37.936Z,94197.13
2022-09-28T07:38:10.956Z,94195.50
2022-09-28T07:41:09.533Z,94203.23
2022-09-28T07:43:45.075Z,94209.04
2022-09-28T07:49:36.492Z,94208.73
2022-09-28T07:52:47.154Z,94211.24
2022-09-28T07:55:23.530Z,94206.52
2022-09-28T07:59:03.332Z,94215.51
2022-09-28T08:02:11.620Z,94213.85
2022-09-28T08:04:43.123Z,94214.42
2022-09-28T08:07:34.043Z,94213.27
2022-09-28T08:10:24.916Z,94216.59
2022-09-28T08:13:27.087Z,94219.49
2022-09-28T08:17:09.074Z,94224.36
2022-09-28T08:20:46.945Z,94229.08
2022-09-28T08:23:47.601Z,94228.48
2022-09-28T08:26:25.439Z,94235.88
2022-09-28T08:28:55.980Z,94226.11
2022-09-28T08:32:09.939Z,94234.98
2022-09-28T08:34:57.458Z,94235.70
2022-09-28T08:38:06.576Z,94247.73
2022-09-28T08:41:19.912Z,94246.86
2022-09-28T08:44:26.157Z,94242.55
2022-09-28T08:47:52.996Z,94245.30
2022-09-28T08:50:36.283Z,94240.49
2022-09-28T08:53:35.161Z,94242.42
2022-09-28T08:56:31.480Z,94245.30
2022-09-28T08:59:04.954Z,94240.98
2022-09-28T09:01:38.227Z,94244.73
2022-09-28T09:04:15.127Z,94251.18
2022-09-28T09:07:25.913Z,94246.84
2022-09-28T09:10:44.103Z,94244.38
2022-09-28T09:13:35.746Z,94236.98
2022-09-28T09:16:35.783Z,94241.24
2022-09-28T09:19:57.414Z,94232.23
2022-09-28T09:22:51.123Z,94231.58
2022-09-28T09:25:40.191Z,94236.58
2022-09-28T09:28:44.364Z,94236.96
2022-09-28T09:32:11.438Z,94237.09
2022-09-28T09:36:06.044Z,94240.36
2022-09-28T09:39:37.172Z,94243.37
2022-09-28T09:43:18.219Z,94244.27
2022-09-28T09:46:14.771Z,94240.38
2022-09-28T09:49:17.720Z,94235.34
2022-09-28T09:52:01.101Z,94239.02
2022-09-28T09:54:40.253Z,94238.43
2022-09-28T09:57:42.558Z,94233.48
2022-09-28T10:00:32.661Z,94235.59
2022-09-28T10:03:17.123Z,94237.91
2022-09-28T10:05:58.693Z,94239.91
2022-09-28T10:09:03.776Z,94238.48
2022-09-28T10:11:47.336Z,94228.21
2022-09-28T10:14:24.370Z,94217.48
2022-09-28T10:17:03.967Z,94210.58
2022-09-28T10:20:14.206Z,94216.45
2022-09-28T10:23:23.874Z,94220.02
2022-09-28T10:26:07.469Z,94219.09
2022-09-28T10:28:46.299Z,94216.95
2022-09-28T10:31:39.371Z,94220.59
2022-09-28T10:34:16.923Z,94221.36
2022-09-28T10:36:50.094Z,94215.62
2022-09-28T10:39:29.257Z,94216.55
2022-09-28T10:42:02.251Z,94212.88
2022-09-28T10:44:54.587Z,94210.94
2022-09-28T10:47:41.196Z,94206.07
2022-09-28T10:50:26.071Z,94201.96
2022-09-28T10:53:17.592Z,94204.44
2022-09-28T10:56:27.245Z,94207.00
2022-09-28T10:59:23.855Z,94208.92
2022-09-28T11:01:58.879Z,94208.55
2022-09-28T11:04:36.614Z,94206.73
2022-09-28T11:07:18.251Z,94201.20
2022-09-28T11:09:49.323Z,94201.80
2022-09-28T11:12:21.273Z,94205.91
2022-09-28T11:14:55.099Z,94198.20
2022-09-28T11:17:42.739Z,94198.65
2022-09-28T11:20:28.505Z,94201.06
2022-09-28T11:23:04.101Z,94204.88
2022-09-28T11:25:33.348Z,94206.90
2022-09-28T11:28:03.968Z,94209.61
2022-09-28T11:30:48.087Z,94208.21
2022-09-28T11:33:34.786Z,94209.67
2022-09-28T11:37:12.445Z,94216.70
2022-09-28T11:39:46.791Z,94220.23
2022-09-28T11:42:23.934Z,94226.45
2022-09-28T11:45:28.525Z,94225.85
2022-09-28T11:48:07.557Z,94222.33
2022-09-28T11:50:45.958Z,94221.42
2022-09-28T11:53:31.028Z,94230.64
2022-09-28T11:56:29.397Z,94227.77
2022-09-28T11:59:16.936Z,94224.89
2022-09-28T12:02:02.742Z,94226.15
2022-09-28T12:05:07.304Z,94219.99
2022-09-28T12:07:44.190Z,94219.09
2022-09-28T12:10:36.764Z,94224.04
2022-09-28T12:13:22.199Z,94222.29
2022-09-28T12:16:37.548Z,94222.23
2022-09-28T12:19:01.692Z,94224.31
2022-09-28T12:21:52.844Z,94225.05
2022-09-28T12:24:28.832Z,94229.86
2022-09-28T12:27:04.709Z,94232.46
2022-09-28T12:29:40.671Z,94233.33
2022-09-28T12:32:30.260Z,94236.04
2022-09-28T12:34:57.488Z,94235.49
2022-09-28T12:37:41.152Z,94229.98
2022-09-28T12:40:15.038Z,94233.88
2022-09-28T12:42:45.543Z,94231.85
2022-09-28T12:46:06.810Z,94232.24
2022-09-28T12:52:30.219Z,94233.27
2022-09-28T12:55:21.665Z,94233.20
2022-09-28T12:57:55.599Z,94237.35
2022-09-28T13:00:25.224Z,94235.37
2022-09-28T13:03:13.256Z,94228.09
2022-09-28T13:05:58.269Z,94234.60
2022-09-28T13:08:27.923Z,94239.79
2022-09-28T13:11:32.726Z,94236.58
2022-09-28T13:14:33.842Z,94240.36
2022-09-28T13:17:19.558Z,94244.39
2022-09-28T13:20:21.407Z,94242.79
2022-09-28T13:23:03.464Z,94242.82
2022-09-28T13:25:34.244Z,94248.41
2022-09-28T13:28:04.522Z,94245.81
2022-09-28T13:30:40.910Z,94247.75
2022-09-28T13:33:18.363Z,94243.27
2022-09-28T13:35:46.113Z,94242.45
2022-09-28T13:38:21.078Z,94243.84
2022-09-28T13:41:03.332Z,94247.48
2022-09-28T13:43:48.294Z,94247.66
2022-09-28T13:47:00.705Z,94247.36
2022-09-28T13:49:52.015Z,94244.42
2022-09-28T13:52:56.511Z,94247.90
2022-09-28T13:55:38.771Z,94245.38
2022-09-28T13:58:14.081Z,94246.27
2022-09-28T14:00:53.267Z,94245.48
2022-09-28T14:03:34.095Z,94245.40
2022-09-28T14:06:28.717Z,94249.61
2022-09-28T14:08:58.374Z,94248.55
2022-09-28T14:11:33.662Z,94244.24
2022-09-28T14:14:14.020Z,94247.20
2022-09-28T14:16:42.195Z,94251.89
2022-09-28T14:19:20.221Z,94253.79
2022-09-28T14:21:58.945Z,94253.80
2022-09-28T14:24:40.931Z,94250.90
2022-09-28T14:27:13.610Z,94251.83
2022-09-28T14:29:40.959Z,94253.70
2022-09-28T14:32:07.758Z,94254.02
2022-09-28T14:34:42.061Z,94247.77
2022-09-28T14:37:43.315Z,94246.52
2022-09-28T14:40:40.036Z,94246.47
2022-09-28T14:43:25.328Z,94249.65
2022-09-28T14:46:07.940Z,94247.64
2022-09-28T14:48:43.634Z,94245.39
2022-09-28T14:51:33.294Z,94243.42
2022-09-28T14:54:11.964Z,94242.88
2022-09-28T14:56:56.492Z,94242.03
2022-09-28T14:59:26.081Z,94246.30
2022-09-28T15:02:05.849Z,94249.27
2022-09-28T15:04:38.657Z,94244.11
2022-09-28T15:07:05.702Z,94251.30
2022-09-28T15:09:36.657Z,94253.83
2022-09-28T15:12:29.398Z,94254.45
2022-09-28T15:15:03.161Z,94251.94
2022-09-28T15:17:40.084Z,94250.86
2022-09-28T15:20:24.065Z,94252.22
2022-09-28T15:22:57.787Z,94253.59
2022-09-28T15:25:31.167Z,94250.27
2022-09-28T15:28:04.062Z,94254.93
2022-09-28T15:30:32.913Z,94254.35
2022-09-28T15:33:21.527Z,94252.74
2022-09-28T15:35:53.509Z,94250.52
2022-09-28T15:38:20.411Z,94247.84
2022-09-28T15:40:47.814Z,94251.65
2022-09-28T15:43:26.356Z,94250.01
2022-09-28T15:46:05.976Z,94248.63
2022-09-28T15:48:44.427Z,94248.95
2022-09-28T15:51:11.469Z,94248.51
2022-09-28T15:53:50.730Z,94248.86
2022-09-28T15:56:17.698Z,94249.52
2022-09-28T15:59:08.837Z,94255.34
2022-09-28T16:01:41.611Z,94257.65
2022-09-28T16:04:37.904Z,94256.21
2022-09-28T16:07:20.913Z,94252.38
2022-09-28T16:09:56.628Z,94253.13
2022-09-28T16:12:41.373Z,94255.42
2022-09-28T16:15:37.085Z,94254.11
2022-09-28T16:18:17.539Z,94256.88
2022-09-28T16:20:47.518Z,94256.84
2022-09-28T16:23:23.655Z,94254.33
2022-09-28T16:25:58.880Z,94257.13
2022-09-28T16:28:28.831Z,94259.19
2022-09-28T16:31:27.845Z,94263.72
2022-09-28T16:33:58.429Z,94264.58
2022-09-28T16:36:29.398Z,94262.66
2022-09-28T16:38:56.536Z,94265.49
2022-09-28T16:41:26.940Z,94260.13
2022-09-28T16:43:58.747Z,94256.11
2022-09-28T16:46:31.896Z,94252.30
2022-09-28T16:48:59.397Z,94254.40
2022-09-28T16:51:26.218Z,94257.48
2022-09-28T16:54:11.519Z,94250.94
2022-09-28T16:56:38.408Z,94254.17
2022-09-28T16:59:05.506Z,94256.19
2022-09-28T17:01:32.574Z,94256.88
2022-09-28T17:03:59.439Z,94255.74
2022-09-28T17:06:26.994Z,94258.84
2022-09-28T17:08:57.846Z,94260.01
2022-09-28T17:11:25.554Z,94259.20
2022-09-28T17:13:58.358Z,94256.86
2022-09-28T17:19:19.416Z,94257.42
2022-09-28T17:21:46.542Z,94256.52
2022-09-28T17:24:13.372Z,94257.06
2022-09-28T17:26:43.796Z,94259.23
2022-09-28T17:29:13.999Z,94256.92
2022-09-28T17:31:45.427Z,94253.89
2022-09-28T17:34:15.420Z,94259.76
2022-09-28T17:36:43.221Z,94262.52
2022-09-28T17:39:12.932Z,94259.45
2022-09-28T17:41:40.553Z,94260.55
2022-09-28T17:44:08.078Z,94261.48
2022-09-28T17:46:45.354Z,94267.95
2022-09-28T17:49:12.678Z,94268.88
2022-09-28T17:51:41.347Z,94270.45
2022-09-28T17:54:08.726Z,94266.65
2022-09-28T17:56:36.258Z,94266.58
2022-09-28T17:59:06.076Z,94270.13
2022-09-28T18:01:34.678Z,94267.74
2022-09-28T18:04:04.455Z,94264.50
2022-09-28T18:06:32.944Z,94269.63
